Hillsview, South Dakota
Current Conditions -  °F | °C
As of 7:52 AM on Monday 26 Jan 2015 (Local Time) from KMBG Reporting Station
Clear Clear  
Wind Chill: 31°   Ceiling: Unl
Heat Index: 38°   Visibility: 10mi
Dew Point: 33°   Wind: 10mph
Humidity: 83%   Direction: 320°NW
Pressure: 29.87"   Gusts: NA
Location:  45.7737°N, 99.5895°W
Report Text: KMBG 261352Z AUTO 32009KT 10SM CLR 03/01 A2987 RMK AO2 SLP128 T00330006
Loading
Personal Weather Stations






























Interactive Weather Map New forecast layout! Learn more

10-Day Weather Forecast

Advertisements
Track Severe Weather on mobile